Time;durP1;ratioP1;P1;durP2;ratioP2;P2;SDS_P1;SDS_P2;PMS_P1;PMS_P2;Temp;Humidity;BMP_temperature;BMP_pressure;BME280_temperature;BME280_humidity;BME280_pressure;Samples;Min_cycle;Max_cycle;Signal;HPM_P1;HPM_P2
2021/10/10 00:02:12;;;;;;;;;;;;;;;1.86;81.39;100316.80;112318;1195;61819;-84
2021/10/10 00:04:38;;;;;;;;;;;;;;;1.82;81.44;100319.11;112299;1195;61714;-83
2021/10/10 00:07:05;;;;;;;;;;;;;;;1.76;81.41;100321.83;112439;1196;61714;-84
2021/10/10 00:09:32;;;;;;;;;;;;;;;1.70;81.44;100318.54;112284;1195;61842;-82
2021/10/10 00:11:58;;;;;;;;;;;;;;;1.64;81.38;100319.30;112234;1196;62389;-83
2021/10/10 00:14:25;;;;;;;;;;;;;;;1.57;81.59;100320.08;112318;1194;61861;-84
2021/10/10 00:16:52;;;;;;;;;;;;;;;1.50;81.63;100321.70;112328;1195;61756;-84
2021/10/10 00:19:18;;;;;;;;;;;;;;;1.44;81.72;100320.34;112322;1195;68109;-84
2021/10/10 00:21:45;;;;;;;;;;;;;;;1.37;81.94;100323.91;112359;1196;61947;-84
2021/10/10 00:24:11;;;;;;;;;;;;;;;1.31;82.02;100326.41;112262;1195;65022;-87
2021/10/10 00:26:38;;;;;;;;;;;;;;;1.24;82.06;100327.86;112196;1193;61824;-84
2021/10/10 00:29:04;;;;;;;;;;;;;;;1.17;82.12;100323.71;112251;1193;61865;-84
2021/10/10 00:31:31;;;;;;;;;;;;;;;1.12;82.41;100324.27;112300;1194;65427;-86
2021/10/10 00:33:58;;;;;;;;;;;;;;;1.08;82.66;100323.94;112302;1196;61948;-86
2021/10/10 00:36:24;;;;;;;;;;;;;;;1.05;82.88;100322.39;112355;1195;62567;-84
2021/10/10 00:38:51;;;;;;;;;;;;;;;1.02;82.97;100324.87;112253;1195;61852;-86
2021/10/10 00:41:17;;;;;;;;;;;;;;;0.98;83.19;100322.98;112270;1194;61782;-83
2021/10/10 00:43:44;;;;;;;;;;;;;;;0.96;83.36;100322.11;112234;1195;63316;-83
2021/10/10 00:46:12;;;;;;;;;;;;;;;0.93;83.64;100320.73;112312;1196;61823;-83
2021/10/10 00:48:39;;;;;;;;;;;;;;;0.92;83.64;100317.59;112265;1196;64997;-83
2021/10/10 00:51:06;;;;;;;;;;;;;;;0.90;83.85;100321.28;112320;1194;61965;-84
2021/10/10 00:53:35;;;;;;;;;;;;;;;0.90;83.98;100318.48;112337;1195;61795;-83
2021/10/10 00:56:03;;;;;;;;;;;;;;;0.92;84.16;100317.41;112351;1195;65564;-83
2021/10/10 00:58:30;;;;;;;;;;;;;;;0.97;84.27;100311.42;112283;1195;61874;-82
2021/10/10 01:00:57;;;;;;;;;;;;;;;1.02;84.34;100310.86;112265;1196;61768;-83
2021/10/10 01:03:23;;;;;;;;;;;;;;;1.08;84.42;100312.92;112357;1196;61867;-84
2021/10/10 01:05:50;;;;;;;;;;;;;;;1.14;84.47;100310.96;112299;1194;61836;-86
2021/10/10 01:08:18;;;;;;;;;;;;;;;1.17;84.41;100308.65;112313;1196;66542;-86
2021/10/10 01:10:45;;;;;;;;;;;;;;;1.13;84.06;100309.56;112302;1196;61865;-86
2021/10/10 01:13:15;;;;;;;;;;;;;;;1.09;84.08;100309.77;112317;1195;63085;-86
2021/10/10 01:15:42;;;;;;;;;;;;;;;1.08;84.25;100312.93;112318;1195;62516;-85
2021/10/10 01:18:09;;;;;;;;;;;;;;;1.06;84.13;100313.13;112508;1195;60623;-86
2021/10/10 01:20:45;;;;;;;;;;;;;;;1.01;84.06;100310.88;112293;1194;65479;-87
2021/10/10 01:23:12;;;;;;;;;;;;;;;0.94;84.11;100310.73;112459;1196;61916;-85
2021/10/10 01:25:39;;;;;;;;;;;;;;;0.86;84.33;100312.02;112344;1194;61977;-86
2021/10/10 01:28:06;;;;;;;;;;;;;;;0.80;84.24;100308.91;111579;1195;1002765;-86
2021/10/10 01:30:32;;;;;;;;;;;;;;;0.75;84.29;100304.73;112284;1195;61814;-86
2021/10/10 01:32:59;;;;;;;;;;;;;;;0.71;84.39;100306.86;112265;1196;66643;-86
2021/10/10 01:35:26;;;;;;;;;;;;;;;0.64;84.41;100305.15;112320;1195;61943;-85
2021/10/10 01:37:52;;;;;;;;;;;;;;;0.58;84.52;100304.83;112401;1196;63997;-86
2021/10/10 01:40:19;;;;;;;;;;;;;;;0.53;84.49;100304.16;112295;1193;61826;-86
2021/10/10 01:42:45;;;;;;;;;;;;;;;0.48;84.64;100301.74;112248;1196;61949;-85
2021/10/10 01:45:16;;;;;;;;;;;;;;;0.43;84.77;100299.48;112311;1196;66881;-83
2021/10/10 01:47:43;;;;;;;;;;;;;;;0.40;84.95;100298.98;112299;1196;61855;-83
2021/10/10 01:50:10;;;;;;;;;;;;;;;0.38;85.04;100297.77;112303;1196;64043;-83
2021/10/10 01:52:40;;;;;;;;;;;;;;;0.35;85.14;100299.18;112294;1195;61877;-83
2021/10/10 01:55:07;;;;;;;;;;;;;;;0.32;85.09;100297.09;112342;1195;61919;-83
2021/10/10 01:57:33;;;;;;;;;;;;;;;0.29;85.19;100298.16;112383;1196;67836;-82
2021/10/10 02:00:00;;;;;;;;;;;;;;;0.25;85.30;100293.45;112299;1196;61820;-84
2021/10/10 02:02:41;;;;;;;;;;;;;;;0.20;85.45;100289.45;112332;1196;63902;-83
2021/10/10 02:05:08;;;;;;;;;;;;;;;0.18;85.66;100289.63;112418;1193;61919;-84
2021/10/10 02:07:34;;;;;;;;;;;;;;;0.17;85.75;100291.03;112368;1193;61859;-85
2021/10/10 02:10:01;;;;;;;;;;;;;;;0.19;85.94;100289.46;112355;1195;65230;-81
2021/10/10 02:12:28;;;;;;;;;;;;;;;0.22;86.03;100286.30;112272;1195;61810;-82
2021/10/10 02:14:54;;;;;;;;;;;;;;;0.25;86.07;100286.63;112270;1194;61824;-82
2021/10/10 02:17:21;;;;;;;;;;;;;;;0.30;86.22;100289.77;112317;1193;61845;-83
2021/10/10 02:19:47;;;;;;;;;;;;;;;0.38;86.24;100289.90;112343;1193;61848;-83
2021/10/10 02:22:14;;;;;;;;;;;;;;;0.45;86.21;100288.29;112259;1196;65506;-83
2021/10/10 02:24:40;;;;;;;;;;;;;;;0.51;86.40;100283.36;112380;1195;61878;-84
2021/10/10 02:27:07;;;;;;;;;;;;;;;0.59;86.30;100278.08;112363;1196;61836;-83
2021/10/10 02:29:33;;;;;;;;;;;;;;;0.65;86.20;100277.86;112274;1194;61863;-83
2021/10/10 02:32:00;;;;;;;;;;;;;;;0.68;86.13;100275.21;112305;1194;61832;-84
2021/10/10 02:34:26;;;;;;;;;;;;;;;0.67;86.00;100274.89;112254;1196;66791;-84
2021/10/10 02:36:53;;;;;;;;;;;;;;;0.63;85.76;100276.48;112335;1196;61878;-84
2021/10/10 02:39:19;;;;;;;;;;;;;;;0.55;85.63;100276.70;112363;1196;61890;-84
2021/10/10 02:41:46;;;;;;;;;;;;;;;0.47;85.80;100278.14;112344;1194;61775;-84
2021/10/10 02:44:12;;;;;;;;;;;;;;;0.37;85.78;100286.06;112333;1196;61839;-83
2021/10/10 02:46:39;;;;;;;;;;;;;;;0.25;85.76;100289.09;112355;1195;61788;-83
2021/10/10 02:49:06;;;;;;;;;;;;;;;0.15;85.82;100284.94;112357;1196;61852;-84
2021/10/10 02:51:33;;;;;;;;;;;;;;;0.10;86.03;100284.42;112237;1195;64063;-83
2021/10/10 02:53:59;;;;;;;;;;;;;;;0.04;85.99;100284.44;112360;1194;61783;-84
2021/10/10 02:56:26;;;;;;;;;;;;;;;-0.02;86.06;100280.98;112322;1193;61821;-84
2021/10/10 02:58:52;;;;;;;;;;;;;;;-0.09;86.11;100280.98;112274;1196;61817;-82
2021/10/10 03:01:18;;;;;;;;;;;;;;;-0.15;86.11;100278.04;112287;1195;61779;-82
2021/10/10 03:03:45;;;;;;;;;;;;;;;-0.21;86.18;100275.96;112279;1196;61814;-82
2021/10/10 03:06:12;;;;;;;;;;;;;;;-0.27;86.21;100279.13;112254;1195;61926;-82
2021/10/10 03:08:38;;;;;;;;;;;;;;;-0.33;86.21;100277.73;112314;1193;61866;-85
2021/10/10 03:11:05;;;;;;;;;;;;;;;-0.37;86.30;100276.34;112288;1195;66851;-84
2021/10/10 03:13:32;;;;;;;;;;;;;;;-0.42;86.40;100276.53;112339;1196;61785;-84
2021/10/10 03:15:58;;;;;;;;;;;;;;;-0.46;86.47;100274.10;112350;1195;64007;-84
2021/10/10 03:18:28;;;;;;;;;;;;;;;-0.48;86.73;100275.84;112334;1196;61862;-84
2021/10/10 03:20:54;;;;;;;;;;;;;;;-0.51;86.81;100276.89;112320;1195;61836;-84
2021/10/10 03:23:21;;;;;;;;;;;;;;;-0.52;86.97;100276.20;112274;1195;61874;-84
2021/10/10 03:25:47;;;;;;;;;;;;;;;-0.52;87.19;100271.65;112329;1195;67499;-83
2021/10/10 03:28:14;;;;;;;;;;;;;;;-0.50;87.21;100266.94;112251;1195;61782;-83
2021/10/10 03:30:41;;;;;;;;;;;;;;;-0.46;87.39;100266.06;112339;1195;61791;-80
2021/10/10 03:33:08;;;;;;;;;;;;;;;-0.41;87.36;100265.01;112282;1194;61842;-84
2021/10/10 03:35:35;;;;;;;;;;;;;;;-0.38;87.25;100261.69;112389;1196;66990;-83
2021/10/10 03:38:02;;;;;;;;;;;;;;;-0.36;87.44;100258.71;112313;1195;61792;-83
2021/10/10 03:40:29;;;;;;;;;;;;;;;-0.33;87.59;100255.90;112285;1195;63949;-82
2021/10/10 03:42:55;;;;;;;;;;;;;;;-0.28;87.61;100257.83;112258;1195;61956;-82
2021/10/10 03:45:22;;;;;;;;;;;;;;;-0.21;87.58;100251.86;112294;1196;61852;-81
2021/10/10 03:47:48;;;;;;;;;;;;;;;-0.17;87.59;100249.05;112257;1195;61752;-82
2021/10/10 03:50:15;;;;;;;;;;;;;;;-0.17;87.54;100244.50;112296;1195;61952;-82
2021/10/10 03:52:43;;;;;;;;;;;;;;;-0.16;87.42;100241.01;112316;1196;63882;-81
2021/10/10 03:55:28;;;;;;;;;;;;;;;-0.16;87.42;100237.00;112308;1193;61853;-82
2021/10/10 03:57:55;;;;;;;;;;;;;;;-0.16;87.47;100239.80;112309;1194;61887;-81
2021/10/10 04:00:21;;;;;;;;;;;;;;;-0.18;87.45;100237.89;112343;1195;67787;-81
2021/10/10 04:02:49;;;;;;;;;;;;;;;-0.21;87.50;100239.46;112280;1196;61901;-81
2021/10/10 04:05:49;;;;;;;;;;;;;;;-0.26;87.53;100238.59;112336;1196;63908;-83
2021/10/10 04:08:08;;;;;;;;;;;;;;;-0.33;87.53;100237.05;112305;1195;61762;-85
2021/10/10 04:10:35;;;;;;;;;;;;;;;-0.41;87.70;100234.11;112354;1195;61881;-84
2021/10/10 04:13:02;;;;;;;;;;;;;;;-0.49;87.72;100232.55;112340;1196;65159;-84
2021/10/10 04:15:29;;;;;;;;;;;;;;;-0.54;87.70;100231.86;112354;1196;61835;-83
2021/10/10 04:17:55;;;;;;;;;;;;;;;-0.59;87.72;100232.91;112309;1195;63762;-85
2021/10/10 04:20:22;;;;;;;;;;;;;;;-0.63;87.82;100233.10;112329;1193;61907;-82
2021/10/10 04:22:48;;;;;;;;;;;;;;;-0.67;87.99;100232.40;112341;1193;61871;-83
2021/10/10 04:25:15;;;;;;;;;;;;;;;-0.71;87.96;100232.06;112330;1195;61826;-83
2021/10/10 04:27:42;;;;;;;;;;;;;;;-0.74;88.03;100230.33;112317;1193;61852;-85
2021/10/10 04:30:13;;;;;;;;;;;;;;;-0.78;88.16;100232.43;112259;1194;63659;-85
2021/10/10 04:32:40;;;;;;;;;;;;;;;-0.81;88.29;100230.67;112362;1194;61859;-85
2021/10/10 04:35:07;;;;;;;;;;;;;;;-0.85;88.43;100231.55;112304;1195;61825;-86
2021/10/10 04:37:34;;;;;;;;;;;;;;;-0.88;88.39;100230.52;112343;1194;66839;-85
2021/10/10 04:40:01;;;;;;;;;;;;;;;-0.92;88.37;100224.76;112313;1196;61835;-86
2021/10/10 04:42:27;;;;;;;;;;;;;;;-0.93;88.56;100225.62;112359;1196;62612;-86
2021/10/10 04:44:54;;;;;;;;;;;;;;;-0.92;88.63;100224.59;112367;1195;62909;-86
2021/10/10 04:47:21;;;;;;;;;;;;;;;-0.89;88.64;100226.50;112297;1193;61843;-85
2021/10/10 04:49:47;;;;;;;;;;;;;;;-0.87;88.68;100224.40;112414;1195;66821;-86
2021/10/10 04:52:14;;;;;;;;;;;;;;;-0.82;88.64;100228.59;112325;1196;61850;-87
2021/10/10 04:54:40;;;;;;;;;;;;;;;-0.77;88.71;100228.41;112248;1196;63992;-85
2021/10/10 04:57:07;;;;;;;;;;;;;;;-0.70;88.80;100227.70;112350;1195;61881;-85
2021/10/10 04:59:33;;;;;;;;;;;;;;;-0.65;88.80;100229.79;112291;1193;61756;-81
2021/10/10 05:02:00;;;;;;;;;;;;;;;-0.63;88.72;100224.90;112250;1195;66986;-81
2021/10/10 05:04:27;;;;;;;;;;;;;;;-0.60;88.80;100229.26;112239;1195;61867;-82
2021/10/10 05:06:53;;;;;;;;;;;;;;;-0.55;88.97;100227.50;112237;1195;63673;-83
2021/10/10 05:09:20;;;;;;;;;;;;;;;-0.47;89.02;100224.52;112263;1195;61886;-82
2021/10/10 05:11:46;;;;;;;;;;;;;;;-0.40;89.08;100223.80;112278;1194;61848;-83
2021/10/10 05:14:13;;;;;;;;;;;;;;;-0.37;88.97;100220.30;112240;1195;61782;-83
2021/10/10 05:16:39;;;;;;;;;;;;;;;-0.31;89.02;100223.94;112275;1195;61843;-83
2021/10/10 05:19:05;;;;;;;;;;;;;;;-0.25;88.96;100226.39;112281;1194;61792;-82
2021/10/10 05:21:32;;;;;;;;;;;;;;;-0.20;88.89;100227.59;112254;1196;61841;-83
2021/10/10 05:23:58;;;;;;;;;;;;;;;-0.15;88.78;100229.84;112277;1196;61891;-83
2021/10/10 05:26:25;;;;;;;;;;;;;;;-0.09;88.69;100229.63;112295;1194;61852;-83
2021/10/10 05:28:51;;;;;;;;;;;;;;;-0.00;88.60;100233.45;112308;1194;61867;-82
2021/10/10 05:31:18;;;;;;;;;;;;;;;0.06;88.53;100231.16;112282;1196;61782;-83
2021/10/10 05:33:44;;;;;;;;;;;;;;;0.09;88.47;100230.95;112293;1196;61882;-83
2021/10/10 05:36:11;;;;;;;;;;;;;;;0.10;88.45;100230.96;112312;1195;61965;-83
2021/10/10 05:38:37;;;;;;;;;;;;;;;0.11;88.51;100237.59;112297;1194;61810;-84
2021/10/10 05:41:04;;;;;;;;;;;;;;;0.13;88.34;100237.41;112351;1195;61849;-84
2021/10/10 05:43:30;;;;;;;;;;;;;;;0.19;88.56;100236.69;112346;1195;61755;-85
2021/10/10 05:45:57;;;;;;;;;;;;;;;0.22;88.67;100235.44;112330;1195;61774;-83
2021/10/10 05:48:24;;;;;;;;;;;;;;;0.28;88.79;100234.20;112306;1194;61862;-82
2021/10/10 05:50:50;;;;;;;;;;;;;;;0.39;88.77;100233.42;112320;1195;61791;-84
2021/10/10 05:53:17;;;;;;;;;;;;;;;0.50;88.84;100228.47;112361;1195;61774;-86
2021/10/10 05:55:43;;;;;;;;;;;;;;;0.61;88.81;100225.61;112334;1195;61855;-84
2021/10/10 05:58:17;;;;;;;;;;;;;;;0.74;88.78;100227.96;112292;1194;61792;-84
2021/10/10 06:00:43;;;;;;;;;;;;;;;0.87;88.55;100228.92;112310;1195;61833;-83
2021/10/10 06:03:10;;;;;;;;;;;;;;;1.00;88.45;100229.34;112313;1195;61814;-84
2021/10/10 06:05:36;;;;;;;;;;;;;;;1.07;88.43;100230.16;112336;1196;61759;-84
2021/10/10 06:08:03;;;;;;;;;;;;;;;1.14;88.28;100229.22;112334;1195;64192;-84
2021/10/10 06:10:30;;;;;;;;;;;;;;;1.22;88.32;100227.23;112440;1196;61841;-84
2021/10/10 06:12:57;;;;;;;;;;;;;;;1.30;88.15;100224.19;112289;1194;61856;-84
2021/10/10 06:15:24;;;;;;;;;;;;;;;1.35;88.05;100218.17;112323;1195;66745;-84
2021/10/10 06:17:50;;;;;;;;;;;;;;;1.39;88.03;100217.42;112342;1195;61859;-85
2021/10/10 06:20:17;;;;;;;;;;;;;;;1.47;87.95;100217.52;112287;1194;62337;-83
2021/10/10 06:22:43;;;;;;;;;;;;;;;1.57;87.83;100221.62;112286;1196;61834;-83
2021/10/10 06:25:10;;;;;;;;;;;;;;;1.68;87.73;100220.44;112292;1195;61170;-84
2021/10/10 06:27:36;;;;;;;;;;;;;;;1.74;87.55;100219.33;112352;1194;66937;-84
2021/10/10 06:30:03;;;;;;;;;;;;;;;1.81;87.45;100215.58;112408;1195;61873;-84
2021/10/10 06:32:29;;;;;;;;;;;;;;;1.88;87.27;100213.04;112230;1196;62631;-81
2021/10/10 06:34:56;;;;;;;;;;;;;;;1.92;87.20;100211.95;112279;1196;61829;-84
2021/10/10 06:37:22;;;;;;;;;;;;;;;1.98;87.09;100208.36;112338;1195;61855;-85
2021/10/10 06:39:49;;;;;;;;;;;;;;;2.07;87.06;100207.20;112201;1196;61829;-81
2021/10/10 06:42:16;;;;;;;;;;;;;;;2.15;86.93;100211.13;112110;1196;61791;-82
2021/10/10 06:44:43;;;;;;;;;;;;;;;2.20;86.77;100211.56;112275;1195;62679;-81
2021/10/10 06:47:10;;;;;;;;;;;;;;;2.24;86.68;100213.46;112149;1195;62194;-80
2021/10/10 06:49:37;;;;;;;;;;;;;;;2.29;86.64;100212.17;112296;1193;61786;-81
2021/10/10 06:52:03;;;;;;;;;;;;;;;2.33;86.40;100211.06;112246;1196;61789;-82
2021/10/10 06:54:30;;;;;;;;;;;;;;;2.36;86.37;100214.34;112320;1194;61862;-82
2021/10/10 06:56:56;;;;;;;;;;;;;;;2.42;86.36;100212.16;112221;1195;64049;-84
2021/10/10 06:59:23;;;;;;;;;;;;;;;2.50;86.21;100209.25;112313;1194;61855;-88
2021/10/10 07:01:49;;;;;;;;;;;;;;;2.59;86.23;100199.98;112162;1196;61853;-84
2021/10/10 07:04:16;;;;;;;;;;;;;;;2.71;86.13;100201.39;112329;1196;61823;-84
2021/10/10 07:06:43;;;;;;;;;;;;;;;2.84;86.10;100209.95;112322;1196;61771;-84
2021/10/10 07:09:11;;;;;;;;;;;;;;;2.96;85.82;100208.70;112323;1196;65026;-84
2021/10/10 07:11:38;;;;;;;;;;;;;;;3.05;85.44;100206.98;112465;1195;61869;-84
2021/10/10 07:14:06;;;;;;;;;;;;;;;3.12;85.26;100207.56;112355;1194;61865;-85
2021/10/10 07:16:34;;;;;;;;;;;;;;;3.21;85.22;100206.89;112380;1195;67844;-82
2021/10/10 07:19:02;;;;;;;;;;;;;;;3.30;84.99;100209.89;112562;1195;62102;-87
2021/10/10 07:21:41;;;;;;;;;;;;;;;3.36;84.80;100209.44;112421;1194;63267;-88
2021/10/10 07:26:37;;;;;;;;;;;;;;;3.55;84.83;100201.35;112535;1196;61910;-89
2021/10/10 07:29:04;;;;;;;;;;;;;;;3.63;84.35;100204.72;112387;1195;67018;-89
2021/10/10 07:31:30;;;;;;;;;;;;;;;3.69;84.14;100203.72;112662;1195;61874;-92
2021/10/10 07:33:57;;;;;;;;;;;;;;;3.71;84.02;100201.56;112415;1196;61971;-89
2021/10/10 07:36:23;;;;;;;;;;;;;;;3.75;84.00;100205.52;112372;1194;61832;-89
2021/10/10 07:38:50;;;;;;;;;;;;;;;3.78;83.91;100206.17;112922;1194;61856;-89
2021/10/10 07:41:17;;;;;;;;;;;;;;;3.82;83.66;100207.67;112333;1196;67011;-89
2021/10/10 07:43:44;;;;;;;;;;;;;;;3.87;83.38;100207.73;112199;1196;61835;-91
2021/10/10 07:46:19;;;;;;;;;;;;;;;3.95;83.27;100206.88;112333;1196;63892;-89
2021/10/10 07:48:47;;;;;;;;;;;;;;;4.04;83.24;100210.21;112404;1195;61676;-90
2021/10/10 07:51:15;;;;;;;;;;;;;;;4.16;83.11;100207.34;112382;1195;61852;-90
2021/10/10 07:53:42;;;;;;;;;;;;;;;4.30;82.98;100204.04;112438;1195;67069;-89
2021/10/10 07:56:08;;;;;;;;;;;;;;;4.45;82.72;100199.14;112442;1195;61948;-89
2021/10/10 07:58:35;;;;;;;;;;;;;;;4.58;82.55;100196.02;112361;1195;64019;-89
2021/10/10 08:01:02;;;;;;;;;;;;;;;4.71;82.24;100193.24;112441;1193;61865;-89
2021/10/10 08:03:28;;;;;;;;;;;;;;;4.82;82.15;100194.92;112523;1196;61881;-89
2021/10/10 08:05:55;;;;;;;;;;;;;;;4.92;81.78;100199.62;112954;1195;66799;-90
2021/10/10 08:08:22;;;;;;;;;;;;;;;4.98;81.57;100198.23;112549;1196;61950;-90
2021/10/10 08:10:48;;;;;;;;;;;;;;;5.03;81.23;100195.64;112612;1194;61803;-90
2021/10/10 08:13:15;;;;;;;;;;;;;;;5.07;80.84;100198.88;112414;1196;61779;-89
2021/10/10 08:15:42;;;;;;;;;;;;;;;5.15;80.68;100200.27;112253;1196;61853;-89
2021/10/10 08:18:08;;;;;;;;;;;;;;;5.23;80.31;100194.77;112201;1195;65547;-88
2021/10/10 08:20:38;;;;;;;;;;;;;;;5.29;79.85;100197.09;112443;1195;69039;-89
2021/10/10 08:23:05;;;;;;;;;;;;;;;5.34;79.27;100193.43;112452;1194;62641;-89
2021/10/10 08:25:32;;;;;;;;;;;;;;;5.41;79.06;100193.61;112333;1195;61872;-88
2021/10/10 08:27:59;;;;;;;;;;;;;;;5.56;79.37;100194.09;112483;1193;61964;-88
2021/10/10 08:30:26;;;;;;;;;;;;;;;5.81;79.15;100189.34;112515;1195;61859;-88
2021/10/10 08:32:53;;;;;;;;;;;;;;;6.05;78.45;100189.02;112309;1196;61826;-89
2021/10/10 08:35:19;;;;;;;;;;;;;;;6.23;78.05;100186.92;112212;1196;64043;-89
2021/10/10 08:37:46;;;;;;;;;;;;;;;6.38;77.93;100183.63;112487;1195;61778;-88
2021/10/10 08:40:14;;;;;;;;;;;;;;;6.53;77.61;100177.17;112271;1195;61858;-89
2021/10/10 08:42:46;;;;;;;;;;;;;;;6.69;77.48;100172.44;112465;1195;65424;-89
2021/10/10 08:45:18;;;;;;;;;;;;;;;6.82;76.88;100175.01;112550;1195;61939;-88
2021/10/10 08:47:45;;;;;;;;;;;;;;;6.88;76.50;100174.29;112336;1195;63821;-89
2021/10/10 08:50:23;;;;;;;;;;;;;;;7.01;76.65;100169.44;112551;1196;61798;-89
2021/10/10 08:52:55;;;;;;;;;;;;;;;7.20;76.11;100168.44;112323;1196;61888;-88
2021/10/10 08:55:21;;;;;;;;;;;;;;;7.37;75.59;100163.09;112323;1196;66824;-88
2021/10/10 08:57:50;;;;;;;;;;;;;;;7.57;75.37;100158.11;112292;1196;61884;-88
2021/10/10 09:00:22;;;;;;;;;;;;;;;7.79;74.46;100157.13;112259;1196;64162;-88
2021/10/10 09:02:51;;;;;;;;;;;;;;;7.98;74.11;100151.65;112408;1195;61836;-90
2021/10/10 09:05:18;;;;;;;;;;;;;;;8.08;73.58;100153.58;115285;1193;59551;-90
2021/10/10 09:07:45;;;;;;;;;;;;;;;8.04;73.38;100154.27;114012;1195;65591;-89
2021/10/10 09:10:19;;;;;;;;;;;;;;;7.98;73.37;100158.24;113250;1195;61775;-90
2021/10/10 09:12:51;;;;;;;;;;;;;;;7.96;73.18;100159.01;115631;1195;62965;-89
2021/10/10 09:15:19;;;;;;;;;;;;;;;7.96;73.00;100158.10;112893;1196;61843;-90
2021/10/10 09:17:56;;;;;;;;;;;;;;;7.96;72.65;100155.64;112514;1195;61926;-90
2021/10/10 09:20:31;;;;;;;;;;;;;;;7.97;72.88;100157.22;112556;1196;65450;-89
2021/10/10 09:22:58;;;;;;;;;;;;;;;8.01;72.46;100152.80;112408;1196;61860;-89
2021/10/10 09:25:25;;;;;;;;;;;;;;;8.12;71.91;100151.46;112207;1196;62724;-89
2021/10/10 09:27:52;;;;;;;;;;;;;;;8.17;71.39;100151.85;112377;1195;61778;-89
2021/10/10 09:30:24;;;;;;;;;;;;;;;8.17;71.60;100150.59;112191;1196;61897;-89
2021/10/10 09:32:56;;;;;;;;;;;;;;;8.32;71.55;100146.65;112227;1196;66832;-88
2021/10/10 09:35:24;;;;;;;;;;;;;;;8.56;71.10;100145.19;112335;1196;61864;-89
2021/10/10 09:38:25;;;;;;;;;;;;;;;8.80;70.65;100141.77;112481;1195;64056;-89
2021/10/10 09:41:07;;;;;;;;;;;;;;;9.00;69.86;100138.79;112537;1195;61807;-89
2021/10/10 09:43:41;;;;;;;;;;;;;;;9.14;68.42;100138.71;112562;1196;61893;-88
2021/10/10 09:46:21;;;;;;;;;;;;;;;9.25;67.91;100139.65;112417;1196;65489;-90
2021/10/10 09:48:48;;;;;;;;;;;;;;;9.36;67.39;100138.45;112510;1196;61814;-90
2021/10/10 09:51:28;;;;;;;;;;;;;;;9.46;66.56;100139.80;112281;1195;64044;-90
2021/10/10 09:53:59;;;;;;;;;;;;;;;9.44;66.09;100136.71;112447;1195;61961;-91
2021/10/10 09:56:26;;;;;;;;;;;;;;;9.45;66.47;100130.98;112537;1195;61863;-91
2021/10/10 09:58:52;;;;;;;;;;;;;;;9.54;66.97;100129.34;112419;1196;65477;-90
2021/10/10 10:12:46;;;;;;;;;;;;;;;9.48;65.76;100125.89;114025;1194;66531;-94
2021/10/10 10:18:33;;;;;;;;;;;;;;;9.38;65.98;100125.11;115030;1194;64403;-95
2021/10/10 10:21:06;;;;;;;;;;;;;;;9.42;65.85;100121.33;112863;1194;61983;-95
2021/10/10 10:23:36;;;;;;;;;;;;;;;9.43;65.07;100116.88;113676;1195;61781;-95
2021/10/10 10:26:23;;;;;;;;;;;;;;;9.43;64.82;100114.02;113855;1195;66847;-95
2021/10/10 10:29:02;;;;;;;;;;;;;;;9.49;64.55;100110.96;113655;1194;60082;-93
2021/10/10 11:26:13;;;;;;;;;;;;;;;11.42;59.44;100075.09;114187;1193;61849;-96
2021/10/10 11:34:29;;;;;;;;;;;;;;;11.59;58.81;100061.17;114423;1193;61826;-94
2021/10/10 11:43:28;;;;;;;;;;;;;;;11.82;58.09;100059.42;114478;1193;62513;-93
2021/10/10 12:21:19;;;;;;;;;;;;;;;11.75;57.51;100045.40;114902;1193;65477;-95
2021/10/10 14:31:32;;;;;;;;;;;;;;;11.42;56.91;99961.38;105854;1193;59320;-91
2021/10/10 14:33:59;;;;;;;;;;;;;;;11.35;57.13;99957.29;114867;1195;62657;-94
2021/10/10 14:36:46;;;;;;;;;;;;;;;11.31;57.09;99952.39;113893;1195;61927;-91
2021/10/10 14:39:16;;;;;;;;;;;;;;;11.29;57.44;99949.66;112657;1196;61749;-91
2021/10/10 14:42:09;;;;;;;;;;;;;;;11.24;57.30;99948.33;112420;1195;65832;-95
2021/10/10 14:44:53;;;;;;;;;;;;;;;11.20;57.66;99947.27;113620;1196;61859;-89
2021/10/10 14:58:29;;;;;;;;;;;;;;;10.93;57.78;99938.96;115228;1173;61871;-92
2021/10/10 15:11:59;;;;;;;;;;;;;;;10.63;57.91;99951.19;115281;1188;61883;-92
2021/10/10 15:14:30;;;;;;;;;;;;;;;10.60;58.05;99952.09;114283;1193;66681;-94
2021/10/10 15:16:57;;;;;;;;;;;;;;;10.56;58.39;99950.86;114852;1173;61893;-85
2021/10/10 15:19:40;;;;;;;;;;;;;;;10.52;58.42;99948.02;112505;1193;61865;-92
2021/10/10 15:22:17;;;;;;;;;;;;;;;10.50;58.48;99946.53;112634;1193;66747;-94
2021/10/10 15:24:46;;;;;;;;;;;;;;;10.50;58.51;99950.42;112311;1193;62547;-84
2021/10/10 15:27:33;;;;;;;;;;;;;;;10.51;58.58;99945.58;112424;1193;62618;-94
2021/10/10 15:30:00;;;;;;;;;;;;;;;10.51;58.79;99945.05;112725;1196;61953;-94
2021/10/10 15:32:27;;;;;;;;;;;;;;;10.51;59.12;99939.89;113571;1193;62048;-91
2021/10/10 15:34:53;;;;;;;;;;;;;;;10.50;59.07;99937.44;112871;1195;65510;-84
2021/10/10 15:37:20;;;;;;;;;;;;;;;10.48;59.06;99935.42;112372;1196;61814;-82
2021/10/10 15:39:47;;;;;;;;;;;;;;;10.46;59.45;99932.38;112343;1193;63897;-92
2021/10/10 15:42:14;;;;;;;;;;;;;;;10.41;59.53;99931.57;112586;1195;61882;-92
2021/10/10 15:44:43;;;;;;;;;;;;;;;10.33;59.63;99932.45;112966;1194;61954;-88
2021/10/10 15:47:09;;;;;;;;;;;;;;;10.26;59.80;99936.34;112647;1196;65145;-87
2021/10/10 15:49:39;;;;;;;;;;;;;;;10.19;59.66;99937.23;112642;1194;61820;-91
2021/10/10 15:52:19;;;;;;;;;;;;;;;10.11;59.96;99933.90;113202;1193;63902;-94
2021/10/10 15:54:48;;;;;;;;;;;;;;;10.02;60.26;99934.38;113231;1174;61884;-90
2021/10/10 15:57:15;;;;;;;;;;;;;;;9.92;60.09;99929.53;112510;1193;61833;-86
2021/10/10 15:59:41;;;;;;;;;;;;;;;9.83;60.02;99923.91;112811;1193;66766;-89
2021/10/10 16:02:08;;;;;;;;;;;;;;;9.76;60.19;99920.21;112588;1193;61801;-93
2021/10/10 16:04:36;;;;;;;;;;;;;;;9.67;60.12;99920.81;112989;1194;64226;-86
2021/10/10 16:07:03;;;;;;;;;;;;;;;9.60;60.31;99921.14;112392;1193;61884;-93
2021/10/10 16:09:33;;;;;;;;;;;;;;;9.53;60.58;99927.52;112418;1193;61855;-87
2021/10/10 16:12:01;;;;;;;;;;;;;;;9.46;60.91;99929.08;112470;1193;65468;-86
2021/10/10 16:14:27;;;;;;;;;;;;;;;9.40;61.22;99931.85;112288;1193;62554;-86
2021/10/10 16:16:54;;;;;;;;;;;;;;;9.33;61.58;99934.98;112390;1193;64045;-86
2021/10/10 16:19:21;;;;;;;;;;;;;;;9.28;61.87;99938.27;112429;1193;61772;-87
2021/10/10 16:21:48;;;;;;;;;;;;;;;9.22;62.30;99938.20;112425;1193;61775;-86
2021/10/10 16:24:15;;;;;;;;;;;;;;;9.15;62.96;99938.52;112395;1193;67289;-86
2021/10/10 16:26:42;;;;;;;;;;;;;;;9.08;63.44;99941.50;112465;1193;61764;-89
2021/10/10 16:29:09;;;;;;;;;;;;;;;9.00;64.18;99938.30;112353;1193;64867;-89
2021/10/10 16:31:36;;;;;;;;;;;;;;;8.94;64.90;99939.84;113681;1174;61857;-89
2021/10/10 16:34:11;;;;;;;;;;;;;;;8.89;65.15;99938.09;112351;1193;61858;-93
2021/10/10 16:36:43;;;;;;;;;;;;;;;8.85;65.47;99942.54;112415;1193;65777;-88
2021/10/10 16:39:12;;;;;;;;;;;;;;;8.82;65.85;99944.06;112478;1193;61804;-90
2021/10/10 16:45:40;;;;;;;61.40;36.20;;;;;;;8.73;66.98;99943.75;111260;1206;599711;-91
2021/10/10 16:48:09;;;;;;;77.90;43.70;;;;;;;8.67;67.35;99943.51;112515;1193;58933;-87
2021/10/10 16:50:36;;;;;;;65.30;36.90;;;;;;;8.64;67.62;99938.48;112441;1193;59084;-87
2021/10/10 16:53:04;;;;;;;46.20;30.10;;;;;;;8.63;67.88;99935.72;112382;1193;63625;-85
2021/10/10 16:55:31;;;;;;;35.70;26.60;;;;;;;8.61;67.82;99929.77;112381;1196;59068;-85
2021/10/10 16:58:07;;;;;;;37.00;24.40;;;;;;;8.62;67.74;99925.32;112989;1193;63669;-93
2021/10/10 17:00:40;;;;;;;37.80;24.10;;;;;;;8.62;67.51;99926.55;112886;1195;59049;-86
2021/10/10 17:03:07;;;;;;;39.10;27.60;;;;;;;8.62;67.29;99920.20;112477;1193;59134;-82
2021/10/10 17:05:34;;;;;;;38.40;25.70;;;;;;;8.61;67.14;99915.23;112270;1196;63277;-84
2021/10/10 17:08:01;;;;;;;37.60;25.40;;;;;;;8.59;67.07;99912.30;112320;1193;60271;-82
2021/10/10 17:10:28;;;;;;;37.60;26.50;;;;;;;8.54;66.90;99909.33;112884;1193;64000;-83